Albion, Rhode Island
Current Conditions -  °F | °C
As of 5:35 AM on Tuesday 27 Jan 2015 (Local Time) from KSFZ Reporting Station
Overcast Overcast  
Wind Chill: -3°   Ceiling: 400
Heat Index: 16°   Visibility: 0.25mi
Dew Point:   Wind: 24mph
Humidity: 68%   Direction: 350°N
Pressure: 29.5"   Gusts: 35mph
Location:  41.95°N, 71.45°W
Report Text: KSFZ 271035Z 35021G30KT 1/4SM OVC004 M09/M14 A2950 RMK AO1 P0001
Loading
Personal Weather Stations






























Interactive Weather Map New forecast layout! Learn more

10-Day Weather Forecast

Advertisements
Track Severe Weather on mobile